Time;durP1;ratioP1;P1;durP2;ratioP2;P2;SDS_P1;SDS_P2;PMS_P1;PMS_P2;Temp;Humidity;BMP_temperature;BMP_pressure;BME280_temperature;BME280_humidity;BME280_pressure;Samples;Min_cycle;Max_cycle;Signal;HPM_P1;HPM_P2
2021/09/11 00:02:25;;;;;;;30.55;21.23;;;;;;;19.85;100.00;101434.47;4979877;28;20086;-63
2021/09/11 00:04:52;;;;;;;28.58;19.95;;;;;;;19.84;100.00;101430.19;4974086;28;20529;-63
2021/09/11 00:07:18;;;;;;;32.95;22.92;;;;;;;19.63;100.00;101434.47;4978390;28;20172;-62
2021/09/11 00:09:45;;;;;;;28.92;20.50;;;;;;;19.82;100.00;101432.22;4981423;28;20508;-63
2021/09/11 00:12:12;;;;;;;33.00;22.50;;;;;;;19.79;100.00;101428.09;4977014;28;20158;-62
2021/09/11 00:14:38;;;;;;;31.40;21.13;;;;;;;19.87;100.00;101424.47;4981618;28;20146;-63
2021/09/11 00:17:05;;;;;;;31.42;20.05;;;;;;;19.58;100.00;101428.06;4978908;28;20145;-63
2021/09/11 00:19:32;;;;;;;31.27;19.33;;;;;;;19.60;100.00;101424.22;4975202;28;20069;-63
2021/09/11 00:21:59;;;;;;;28.20;19.48;;;;;;;19.62;100.00;101435.50;4978164;28;20149;-62
2021/09/11 00:24:25;;;;;;;31.75;19.73;;;;;;;19.51;100.00;101428.03;4984369;28;20104;-62
2021/09/11 00:26:52;;;;;;;30.63;18.27;;;;;;;19.36;100.00;101431.56;4985640;28;20054;-63
2021/09/11 00:29:19;;;;;;;31.85;20.30;;;;;;;19.47;100.00;101432.09;4973711;28;20507;-62
2021/09/11 00:31:45;;;;;;;26.85;16.80;;;;;;;19.26;100.00;101432.91;4980726;28;20506;-62
2021/09/11 00:34:12;;;;;;;31.38;19.83;;;;;;;19.38;100.00;101438.53;4971089;28;20471;-62
2021/09/11 00:36:38;;;;;;;32.72;19.25;;;;;;;19.33;100.00;101434.63;4982724;28;20054;-62
2021/09/11 00:39:05;;;;;;;26.90;19.70;;;;;;;19.31;100.00;101433.16;4974004;28;20058;-63
2021/09/11 00:41:31;;;;;;;27.45;18.15;;;;;;;19.32;100.00;101435.59;4979923;28;20084;-63
2021/09/11 00:43:58;;;;;;;31.42;19.05;;;;;;;19.36;100.00;101436.06;4982238;28;20380;-63
2021/09/11 00:46:24;;;;;;;28.30;18.85;;;;;;;19.43;100.00;101438.81;4974648;28;20142;-63
2021/09/11 00:48:51;;;;;;;27.15;16.90;;;;;;;19.48;100.00;101433.72;4979694;28;20050;-63
2021/09/11 00:51:18;;;;;;;27.42;18.17;;;;;;;19.13;100.00;101434.41;4981437;28;20165;-62
2021/09/11 00:53:45;;;;;;;29.40;19.27;;;;;;;19.13;100.00;101442.38;4981719;28;20078;-63
2021/09/11 00:56:13;;;;;;;29.15;19.02;;;;;;;19.02;100.00;101439.41;4979099;28;20088;-62
2021/09/11 00:58:40;;;;;;;26.13;18.13;;;;;;;19.00;100.00;101433.44;4980457;28;20050;-63
2021/09/11 01:01:07;;;;;;;31.15;19.30;;;;;;;19.01;100.00;101427.91;4980153;28;20140;-63
2021/09/11 01:03:34;;;;;;;29.92;17.88;;;;;;;18.92;100.00;101434.38;4978489;28;20046;-63
2021/09/11 01:06:01;;;;;;;26.67;16.80;;;;;;;18.67;100.00;101426.66;4985037;28;20066;-63
2021/09/11 01:08:28;;;;;;;28.85;18.67;;;;;;;18.71;100.00;101432.44;4980296;28;20074;-62
2021/09/11 01:10:54;;;;;;;26.35;17.10;;;;;;;18.70;100.00;101431.63;4982624;28;20062;-62
2021/09/11 01:13:21;;;;;;;29.95;17.17;;;;;;;18.63;100.00;101430.72;4974327;28;20157;-62
2021/09/11 01:15:48;;;;;;;26.27;17.25;;;;;;;18.80;100.00;101433.19;4979661;28;20055;-63
2021/09/11 01:18:14;;;;;;;30.65;16.45;;;;;;;18.67;100.00;101431.16;4983013;28;20137;-61
2021/09/11 01:20:41;;;;;;;23.13;17.23;;;;;;;18.68;100.00;101430.13;4977396;28;20062;-61
2021/09/11 01:23:08;;;;;;;24.52;15.27;;;;;;;18.69;100.00;101435.28;4981971;28;20085;-62
2021/09/11 01:25:34;;;;;;;24.50;15.40;;;;;;;18.59;100.00;101434.75;4979149;28;20077;-62
2021/09/11 01:28:01;;;;;;;27.20;16.63;;;;;;;18.61;100.00;101440.69;4979313;28;20112;-64
2021/09/11 01:30:31;;;;;;;24.58;14.18;;;;;;;18.59;100.00;101448.03;4975541;28;20097;-62
2021/09/11 01:32:57;;;;;;;24.08;15.68;;;;;;;18.42;100.00;101439.41;4980891;28;20181;-60
2021/09/11 01:35:24;;;;;;;24.42;15.88;;;;;;;18.53;100.00;101449.59;4985278;28;20133;-62
2021/09/11 01:37:51;;;;;;;22.70;15.05;;;;;;;18.62;100.00;101446.81;4977545;28;20089;-62
2021/09/11 01:40:17;;;;;;;25.27;17.33;;;;;;;18.64;100.00;101455.44;4984536;28;20136;-62
2021/09/11 01:42:44;;;;;;;24.45;16.38;;;;;;;18.71;100.00;101454.53;4968267;28;20142;-62
2021/09/11 01:45:13;;;;;;;28.50;16.58;;;;;;;18.74;100.00;101456.00;4984048;28;20149;-62
2021/09/11 01:47:41;;;;;;;30.02;16.85;;;;;;;18.51;100.00;101456.09;4973440;28;20456;-63
2021/09/11 01:50:10;;;;;;;25.73;16.80;;;;;;;18.72;100.00;101458.84;4984982;28;20112;-62
2021/09/11 01:52:37;;;;;;;26.85;15.90;;;;;;;18.66;100.00;101456.06;4985507;28;20154;-62
2021/09/11 01:55:08;;;;;;;29.10;16.63;;;;;;;18.47;100.00;101454.81;4974795;28;20055;-62
2021/09/11 01:57:36;;;;;;;26.77;17.25;;;;;;;18.32;100.00;101457.44;4980539;28;20108;-62
2021/09/11 02:00:07;;;;;;;26.93;17.13;;;;;;;18.28;100.00;101459.66;4977810;28;20148;-62
2021/09/11 02:02:34;;;;;;;29.80;17.15;;;;;;;18.23;100.00;101458.53;4982479;28;20097;-62
2021/09/11 02:05:00;;;;;;;30.67;17.92;;;;;;;18.23;100.00;101467.34;4981057;28;20060;-63
2021/09/11 02:07:27;;;;;;;27.80;17.60;;;;;;;18.21;100.00;101465.84;4981267;28;20047;-63
2021/09/11 02:09:54;;;;;;;28.40;18.02;;;;;;;18.06;100.00;101463.19;4978559;28;20085;-63
2021/09/11 02:12:20;;;;;;;28.65;17.55;;;;;;;17.99;100.00;101471.03;4971971;28;25036;-63
2021/09/11 02:14:46;;;;;;;29.60;17.23;;;;;;;18.02;100.00;101470.69;4985363;28;20054;-63
2021/09/11 02:17:13;;;;;;;30.80;17.55;;;;;;;18.00;100.00;101475.34;4974986;28;20145;-63
2021/09/11 02:19:40;;;;;;;25.77;15.32;;;;;;;17.87;100.00;101473.28;4985371;28;20133;-63
2021/09/11 02:22:10;;;;;;;25.88;16.60;;;;;;;17.90;100.00;101472.94;4972923;28;20054;-63
2021/09/11 02:24:37;;;;;;;27.45;15.77;;;;;;;17.94;100.00;101473.41;4981510;28;20503;-63
2021/09/11 02:27:05;;;;;;;25.48;15.73;;;;;;;17.86;100.00;101470.84;4979208;28;20110;-62
2021/09/11 02:29:32;;;;;;;26.55;15.05;;;;;;;17.83;100.00;101479.13;4976154;28;20162;-63
2021/09/11 02:32:01;;;;;;;22.57;14.00;;;;;;;17.85;100.00;101477.13;4981027;28;20093;-63
2021/09/11 02:34:29;;;;;;;19.75;11.85;;;;;;;17.83;100.00;101469.31;4976729;28;20198;-63
2021/09/11 02:36:55;;;;;;;23.52;14.43;;;;;;;17.68;100.00;101471.09;4978044;28;20501;-62
2021/09/11 02:39:22;;;;;;;25.92;15.18;;;;;;;17.69;100.00;101464.78;4974860;28;20085;-62
2021/09/11 02:41:48;;;;;;;25.77;14.90;;;;;;;17.72;100.00;101464.44;4979981;28;20507;-62
2021/09/11 02:44:15;;;;;;;25.67;14.70;;;;;;;17.61;100.00;101467.50;4979584;28;20142;-62
2021/09/11 02:46:41;;;;;;;21.92;13.93;;;;;;;17.62;100.00;101469.16;4982354;28;20094;-62
2021/09/11 02:49:08;;;;;;;21.20;13.90;;;;;;;17.73;100.00;101458.13;4984744;28;20086;-62
2021/09/11 02:51:34;;;;;;;23.05;13.95;;;;;;;17.76;100.00;101466.56;4972532;28;20093;-61
2021/09/11 02:54:01;;;;;;;27.42;14.60;;;;;;;17.68;100.00;101469.28;4979730;28;20149;-62
2021/09/11 02:56:27;;;;;;;21.90;13.70;;;;;;;17.72;100.00;101462.63;4976144;28;20137;-62
2021/09/11 02:58:54;;;;;;;23.73;14.57;;;;;;;17.86;100.00;101468.19;4982396;28;20135;-62
2021/09/11 03:01:22;;;;;;;27.33;15.52;;;;;;;17.78;100.00;101466.38;4976762;28;20070;-62
2021/09/11 03:03:49;;;;;;;26.92;13.73;;;;;;;17.68;100.00;101458.66;4981713;28;20053;-62
2021/09/11 03:06:16;;;;;;;21.00;12.20;;;;;;;17.85;100.00;101461.22;4976614;28;20755;-62
2021/09/11 03:08:42;;;;;;;22.33;12.68;;;;;;;17.89;100.00;101462.50;4975374;28;20100;-62
2021/09/11 03:11:09;;;;;;;29.88;14.82;;;;;;;18.07;100.00;101465.69;4980185;28;20055;-61
2021/09/11 03:13:36;;;;;;;29.42;14.50;;;;;;;17.98;100.00;101462.25;4978481;28;20892;-62
2021/09/11 03:16:03;;;;;;;22.88;14.57;;;;;;;17.78;100.00;101463.75;4983576;28;20559;-62
2021/09/11 03:18:29;;;;;;;25.10;14.52;;;;;;;17.57;100.00;101465.19;4979742;28;20082;-62
2021/09/11 03:20:56;;;;;;;24.55;14.32;;;;;;;17.65;100.00;101460.84;4974474;28;20077;-62
2021/09/11 03:23:22;;;;;;;24.58;14.02;;;;;;;17.79;100.00;101463.53;4983112;28;20078;-62
2021/09/11 03:25:49;;;;;;;26.35;14.43;;;;;;;17.86;100.00;101465.53;4978752;28;20137;-62
2021/09/11 03:28:15;;;;;;;26.83;14.15;;;;;;;17.54;100.00;101468.22;4982920;28;20051;-61
2021/09/11 03:30:42;;;;;;;26.92;15.27;;;;;;;17.47;100.00;101466.44;4977632;28;20054;-61
2021/09/11 03:33:08;;;;;;;24.60;15.55;;;;;;;17.61;100.00;101459.56;4978601;28;20145;-62
2021/09/11 03:35:35;;;;;;;25.80;14.88;;;;;;;17.55;100.00;101458.44;4972898;28;20146;-62
2021/09/11 03:38:02;;;;;;;29.63;17.55;;;;;;;17.84;100.00;101460.41;4982461;28;20082;-62
2021/09/11 03:40:29;;;;;;;29.33;15.48;;;;;;;17.51;100.00;101460.59;4982592;28;20081;-62
2021/09/11 03:42:55;;;;;;;27.52;16.77;;;;;;;17.43;100.00;101460.66;4975112;28;20512;-62
2021/09/11 03:45:22;;;;;;;27.92;16.85;;;;;;;17.48;100.00;101460.13;4981727;28;20515;-61
2021/09/11 03:47:49;;;;;;;27.02;16.55;;;;;;;17.31;100.00;101470.03;4970892;28;20173;-60
2021/09/11 03:50:15;;;;;;;27.20;17.55;;;;;;;17.61;100.00;101463.03;4979504;28;20597;-63
2021/09/11 03:52:42;;;;;;;29.67;17.95;;;;;;;17.38;100.00;101463.81;4975571;28;20137;-62
2021/09/11 03:55:09;;;;;;;29.95;17.38;;;;;;;17.29;100.00;101466.72;4983173;28;20413;-62
2021/09/11 03:57:35;;;;;;;33.22;18.25;;;;;;;17.11;100.00;101472.28;4978981;28;20134;-62
2021/09/11 04:00:02;;;;;;;31.88;17.83;;;;;;;17.35;100.00;101471.34;4976775;28;20156;-62
2021/09/11 04:02:28;;;;;;;27.52;17.48;;;;;;;17.48;100.00;101474.22;4976834;28;20146;-62
2021/09/11 04:04:55;;;;;;;31.35;17.58;;;;;;;17.57;100.00;101467.84;4977049;28;20482;-60
2021/09/11 04:07:22;;;;;;;31.45;18.00;;;;;;;17.72;100.00;101470.56;4981111;28;20085;-61
2021/09/11 04:09:48;;;;;;;35.35;19.08;;;;;;;17.48;100.00;101473.38;4978503;28;20094;-61
2021/09/11 04:12:14;;;;;;;31.10;18.00;;;;;;;17.59;100.00;101468.50;4978837;28;20193;-61
2021/09/11 04:14:41;;;;;;;41.95;19.50;;;;;;;17.46;100.00;101473.56;4980975;28;20051;-62
2021/09/11 04:17:07;;;;;;;33.05;18.38;;;;;;;17.40;100.00;101487.53;4968043;28;20149;-62
2021/09/11 04:19:34;;;;;;;28.10;17.50;;;;;;;17.48;100.00;101468.09;4984661;28;20072;-62
2021/09/11 04:22:00;;;;;;;29.58;17.73;;;;;;;17.49;100.00;101473.22;4974174;28;20145;-61
2021/09/11 04:24:27;;;;;;;34.28;16.40;;;;;;;17.57;100.00;101480.31;4985661;28;20511;-62
2021/09/11 04:26:54;;;;;;;32.72;19.27;;;;;;;17.69;100.00;101478.88;4975300;28;20141;-60
2021/09/11 04:29:20;;;;;;;28.52;16.67;;;;;;;17.63;100.00;101486.72;4983110;28;20149;-58
2021/09/11 04:31:46;;;;;;;29.00;18.15;;;;;;;17.42;100.00;101493.47;4978368;28;20089;-60
2021/09/11 04:34:13;;;;;;;32.92;18.42;;;;;;;17.29;100.00;101483.47;4981622;28;20145;-62
2021/09/11 04:36:39;;;;;;;28.85;17.92;;;;;;;17.03;100.00;101488.22;4984653;28;20129;-62
2021/09/11 04:39:06;;;;;;;31.48;18.38;;;;;;;17.50;100.00;101482.00;4981241;28;20047;-62
2021/09/11 04:41:32;;;;;;;30.58;17.90;;;;;;;17.46;100.00;101488.66;4979397;28;20469;-61
2021/09/11 04:43:59;;;;;;;28.02;16.10;;;;;;;17.47;100.00;101488.50;4974390;28;20432;-62
2021/09/11 04:46:25;;;;;;;26.83;16.38;;;;;;;17.64;100.00;101485.72;4982864;28;20160;-62
2021/09/11 04:48:52;;;;;;;29.80;16.95;;;;;;;17.47;100.00;101492.97;4986837;28;20693;-62
2021/09/11 04:51:19;;;;;;;30.67;16.45;;;;;;;17.29;100.00;101502.03;4977808;28;20136;-62
2021/09/11 04:53:48;;;;;;;29.30;16.58;;;;;;;17.26;100.00;101497.06;4987268;28;20097;-60
2021/09/11 04:56:14;;;;;;;24.13;14.80;;;;;;;17.25;100.00;101494.56;4976441;28;20081;-62
2021/09/11 04:58:41;;;;;;;30.20;17.85;;;;;;;17.25;100.00;101497.22;4981936;28;20169;-62
2021/09/11 05:01:07;;;;;;;26.48;15.85;;;;;;;17.28;100.00;101497.69;4976402;28;20133;-62
2021/09/11 05:03:34;;;;;;;28.13;16.45;;;;;;;17.26;100.00;101497.06;4986660;28;20061;-62
2021/09/11 05:06:01;;;;;;;24.05;16.02;;;;;;;17.47;100.00;101495.63;4977146;28;20104;-62
2021/09/11 05:08:27;;;;;;;28.60;15.85;;;;;;;17.70;100.00;101492.97;4986682;28;20133;-61
2021/09/11 05:10:54;;;;;;;28.83;15.98;;;;;;;17.73;100.00;101497.94;4980553;28;20081;-60
2021/09/11 05:13:23;;;;;;;34.30;16.13;;;;;;;17.59;100.00;101502.16;4978983;28;20156;-61
2021/09/11 05:15:49;;;;;;;28.20;16.15;;;;;;;17.69;100.00;101492.16;4984353;28;20134;-61
2021/09/11 05:18:16;;;;;;;25.45;15.38;;;;;;;17.72;100.00;101496.25;4983972;28;20050;-62
2021/09/11 05:20:42;;;;;;;23.33;14.85;;;;;;;17.69;100.00;101494.78;4982723;28;20092;-60
2021/09/11 05:23:08;;;;;;;28.00;15.38;;;;;;;17.85;100.00;101501.03;4982165;28;20145;-62
2021/09/11 05:25:35;;;;;;;24.23;15.15;;;;;;;17.91;100.00;101495.00;4979392;28;20070;-62
2021/09/11 05:28:01;;;;;;;34.10;15.30;;;;;;;17.93;100.00;101498.28;4987103;28;20129;-62
2021/09/11 05:30:28;;;;;;;25.88;15.15;;;;;;;18.04;100.00;101494.41;4977926;28;20149;-63
2021/09/11 05:32:54;;;;;;;25.77;15.07;;;;;;;18.01;100.00;101492.91;4981990;28;20080;-62
2021/09/11 05:35:21;;;;;;;21.63;14.27;;;;;;;17.73;100.00;101500.56;4977411;28;20490;-62
2021/09/11 05:37:47;;;;;;;29.00;16.02;;;;;;;17.72;100.00;101501.56;4980142;28;21346;-62
2021/09/11 05:40:14;;;;;;;26.75;14.18;;;;;;;17.40;100.00;101508.75;4971538;28;20150;-62
2021/09/11 05:42:40;;;;;;;26.73;14.50;;;;;;;17.70;100.00;101507.06;4986378;28;20082;-61
2021/09/11 05:45:07;;;;;;;25.90;15.60;;;;;;;17.69;100.00;101510.72;4983498;28;20054;-62
2021/09/11 05:47:34;;;;;;;24.35;14.50;;;;;;;17.64;100.00;101514.91;4976525;28;20137;-62
2021/09/11 05:50:01;;;;;;;18.88;12.88;;;;;;;17.73;100.00;101514.66;4981297;28;20558;-61
2021/09/11 05:52:27;;;;;;;28.67;14.75;;;;;;;17.88;100.00;101519.25;4974523;28;20451;-62
2021/09/11 05:54:54;;;;;;;21.48;12.82;;;;;;;17.94;100.00;101511.41;4981804;28;20500;-62
2021/09/11 05:57:24;;;;;;;26.48;13.85;;;;;;;17.96;100.00;101524.50;4976630;28;20065;-62
2021/09/11 05:59:50;;;;;;;24.42;13.02;;;;;;;17.69;100.00;101523.16;4980895;28;20073;-62
2021/09/11 06:02:16;;;;;;;21.33;12.80;;;;;;;17.80;100.00;101520.09;4983745;28;20133;-62
2021/09/11 06:04:43;;;;;;;21.58;13.05;;;;;;;17.58;100.00;101519.06;4967369;28;20158;-62
2021/09/11 06:07:10;;;;;;;26.90;13.52;;;;;;;17.62;100.00;101522.19;4983197;28;20082;-61
2021/09/11 06:09:36;;;;;;;24.17;14.07;;;;;;;17.86;100.00;101522.06;4977133;28;20061;-62
2021/09/11 06:12:05;;;;;;;23.60;13.73;;;;;;;17.76;100.00;101516.16;4982121;28;20141;-62
2021/09/11 06:14:31;;;;;;;27.98;13.60;;;;;;;17.89;100.00;101523.53;4978817;28;20177;-62
2021/09/11 06:16:58;;;;;;;21.05;13.15;;;;;;;18.01;100.00;101527.41;4980946;28;20085;-62
2021/09/11 06:19:26;;;;;;;19.75;11.15;;;;;;;17.89;100.00;101531.50;4979514;28;20046;-61
2021/09/11 06:21:53;;;;;;;21.08;13.40;;;;;;;18.14;100.00;101538.28;4973263;28;20058;-62
2021/09/11 06:24:24;;;;;;;21.00;12.07;;;;;;;18.12;100.00;101542.94;4984796;28;20050;-61
2021/09/11 06:26:50;;;;;;;20.67;13.15;;;;;;;18.09;100.00;101548.63;4974222;28;20133;-62
2021/09/11 06:29:17;;;;;;;20.23;12.43;;;;;;;18.24;100.00;101547.81;4984156;28;20595;-62
2021/09/11 06:31:43;;;;;;;22.55;12.80;;;;;;;18.31;100.00;101546.13;4973020;28;20054;-62
2021/09/11 06:34:10;;;;;;;21.23;12.07;;;;;;;18.27;100.00;101550.09;4981352;28;20082;-62
2021/09/11 06:36:36;;;;;;;33.35;14.48;;;;;;;18.21;100.00;101538.41;4984501;28;20162;-62
2021/09/11 06:39:03;;;;;;;18.55;11.52;;;;;;;18.14;100.00;101530.31;4979415;28;20136;-61
2021/09/11 06:41:29;;;;;;;18.00;12.13;;;;;;;17.97;100.00;101539.41;4980084;28;20542;-61
2021/09/11 06:43:56;;;;;;;25.83;12.98;;;;;;;17.84;100.00;101544.47;4979371;28;20129;-61
2021/09/11 06:46:26;;;;;;;19.02;11.75;;;;;;;17.92;100.00;101539.13;4971583;28;20054;-58
2021/09/11 06:48:53;;;;;;;18.65;11.93;;;;;;;18.06;100.00;101551.63;4973886;28;20181;-62
2021/09/11 06:51:19;;;;;;;22.95;12.65;;;;;;;18.09;100.00;101555.72;4982010;28;20701;-62
2021/09/11 06:53:46;;;;;;;25.35;13.20;;;;;;;18.05;100.00;101557.91;4984210;28;20085;-62
2021/09/11 06:56:12;;;;;;;23.67;11.95;;;;;;;18.12;100.00;101558.88;4976527;28;20078;-63
2021/09/11 06:58:39;;;;;;;24.33;12.43;;;;;;;18.12;100.00;101560.69;4983521;28;20128;-62
2021/09/11 07:01:05;;;;;;;20.45;12.43;;;;;;;18.27;100.00;101568.69;4967558;28;20219;-62
2021/09/11 07:03:32;;;;;;;18.48;11.90;;;;;;;18.27;100.00;101566.03;4984601;28;20134;-62
2021/09/11 07:06:03;;;;;;;25.00;12.27;;;;;;;18.34;100.00;101565.16;4977068;28;20146;-62
2021/09/11 07:08:30;;;;;;;23.02;12.73;;;;;;;18.12;100.00;101572.13;4983930;28;20510;-64
2021/09/11 07:10:57;;;;;;;21.70;12.38;;;;;;;18.20;100.00;101562.47;4976677;28;20081;-61
2021/09/11 07:13:24;;;;;;;23.50;13.07;;;;;;;18.37;100.00;101572.75;4979745;28;20046;-62
2021/09/11 07:15:50;;;;;;;23.13;13.10;;;;;;;18.52;100.00;101577.28;4979443;28;20054;-63
2021/09/11 07:18:17;;;;;;;21.27;12.48;;;;;;;18.55;100.00;101575.09;4977006;28;20042;-63
2021/09/11 07:20:43;;;;;;;21.02;12.65;;;;;;;18.53;100.00;101581.59;4978624;28;20146;-63
2021/09/11 07:23:10;;;;;;;20.35;12.32;;;;;;;18.46;100.00;101578.00;4977259;28;20077;-62
2021/09/11 07:25:37;;;;;;;20.80;13.15;;;;;;;18.40;100.00;101582.19;4980782;28;20161;-62
2021/09/11 07:28:03;;;;;;;19.65;11.55;;;;;;;18.57;100.00;101577.56;4976447;28;20523;-62
2021/09/11 07:30:31;;;;;;;21.02;13.50;;;;;;;18.43;100.00;101579.19;4975036;28;20125;-62
2021/09/11 07:32:57;;;;;;;19.27;11.50;;;;;;;18.63;100.00;101584.00;4986114;28;20145;-63
2021/09/11 07:35:24;;;;;;;26.30;14.30;;;;;;;18.60;100.00;101587.81;4973753;28;20138;-62
2021/09/11 07:37:50;;;;;;;23.25;13.25;;;;;;;18.69;100.00;101583.28;4982851;28;20129;-63
2021/09/11 07:40:17;;;;;;;22.25;13.63;;;;;;;18.61;100.00;101583.34;4974443;28;20054;-63
2021/09/11 07:42:43;;;;;;;21.88;13.48;;;;;;;18.57;100.00;101590.84;4977215;28;20050;-63
2021/09/11 07:45:13;;;;;;;21.30;13.63;;;;;;;18.53;100.00;101593.03;4973807;28;20054;-62
2021/09/11 07:47:41;;;;;;;18.83;12.80;;;;;;;18.12;100.00;101597.88;4983940;28;20097;-62
2021/09/11 07:50:08;;;;;;;22.23;13.15;;;;;;;18.04;100.00;101598.75;4981148;28;20133;-63
2021/09/11 07:52:35;;;;;;;26.93;13.63;;;;;;;18.21;100.00;101599.47;4979202;28;20106;-62
2021/09/11 07:55:01;;;;;;;24.67;14.07;;;;;;;18.29;100.00;101591.44;4976173;28;20050;-63
2021/09/11 07:57:27;;;;;;;24.25;13.88;;;;;;;18.37;100.00;101588.69;4972193;28;21315;-62
2021/09/11 07:59:55;;;;;;;20.42;14.70;;;;;;;18.34;100.00;101585.56;4977260;28;20109;-62
2021/09/11 08:02:25;;;;;;;24.92;14.50;;;;;;;18.31;100.00;101591.25;4981251;28;20069;-62
2021/09/11 08:04:52;;;;;;;25.88;15.43;;;;;;;18.25;100.00;101583.97;4982796;28;20049;-63
2021/09/11 08:07:20;;;;;;;22.77;14.73;;;;;;;18.58;100.00;101589.84;4987098;28;20046;-64
2021/09/11 08:09:47;;;;;;;;;;;;;;;18.47;100.00;101593.75;4972741;28;20126;-63
2021/09/11 08:12:13;;;;;;;28.60;15.43;;;;;;;18.42;100.00;101596.13;4984297;28;20664;-63
2021/09/11 08:14:40;;;;;;;25.85;16.38;;;;;;;18.55;100.00;101596.34;4980039;28;20703;-63
2021/09/11 08:17:06;;;;;;;25.73;16.13;;;;;;;18.80;100.00;101606.78;4987151;28;20081;-64
2021/09/11 08:19:33;;;;;;;25.67;16.63;;;;;;;18.73;100.00;101601.31;4977152;28;20077;-63
2021/09/11 08:21:59;;;;;;;26.95;16.10;;;;;;;18.88;100.00;101595.25;4983497;28;20046;-64
2021/09/11 08:24:26;;;;;;;26.48;17.08;;;;;;;19.03;100.00;101604.03;4981506;28;20146;-63
2021/09/11 08:26:52;;;;;;;25.20;16.17;;;;;;;19.02;100.00;101596.25;4977192;28;20054;-64
2021/09/11 08:29:19;;;;;;;25.25;16.30;;;;;;;18.94;100.00;101611.28;4984621;28;20105;-63
2021/09/11 08:31:45;;;;;;;28.02;16.63;;;;;;;19.11;100.00;101609.28;4978824;28;20082;-64
2021/09/11 08:34:12;;;;;;;24.25;15.88;;;;;;;19.07;100.00;101615.13;4987017;28;20130;-63
2021/09/11 08:36:39;;;;;;;25.05;16.40;;;;;;;19.11;100.00;101624.38;4976633;28;20367;-64
2021/09/11 08:39:24;;;;;;;26.50;16.35;;;;;;;19.17;100.00;101613.84;4982575;28;20483;-63
2021/09/11 08:41:52;;;;;;;23.20;16.65;;;;;;;19.28;100.00;101625.03;4987797;28;20129;-64
2021/09/11 08:44:19;;;;;;;26.10;17.25;;;;;;;19.40;100.00;101622.72;4976986;28;20137;-63
2021/09/11 08:46:48;;;;;;;26.77;16.95;;;;;;;19.35;100.00;101623.28;4982830;28;20082;-63
2021/09/11 08:49:16;;;;;;;28.98;16.23;;;;;;;19.24;100.00;101618.44;4978757;28;20137;-63
2021/09/11 08:51:42;;;;;;;27.52;15.98;;;;;;;19.23;100.00;101622.94;4980531;28;20129;-61
2021/09/11 08:54:09;;;;;;;26.85;16.70;;;;;;;19.47;100.00;101619.13;4977333;28;20507;-63
2021/09/11 08:56:40;;;;;;;28.80;17.33;;;;;;;19.54;100.00;101630.69;4983585;28;20056;-63
2021/09/11 08:59:12;;;;;;;24.05;15.70;;;;;;;19.84;100.00;101625.34;4979504;28;20137;-63
2021/09/11 09:01:39;;;;;;;25.63;15.07;;;;;;;19.97;100.00;101629.16;4985238;28;20101;-64
2021/09/11 09:04:06;;;;;;;23.40;15.40;;;;;;;20.10;100.00;101626.63;4976212;28;20048;-64
2021/09/11 09:06:37;;;;;;;23.35;15.77;;;;;;;20.05;100.00;101637.00;4974918;28;20053;-64
2021/09/11 09:09:12;;;;;;;25.10;15.80;;;;;;;20.00;100.00;101639.44;4982350;28;20579;-63
2021/09/11 09:11:43;;;;;;;25.45;16.33;;;;;;;19.93;100.00;101640.19;4977639;28;20089;-62
2021/09/11 09:14:17;;;;;;;28.77;17.02;;;;;;;19.87;100.00;101637.44;4981758;28;20105;-64
2021/09/11 09:16:47;;;;;;;24.60;15.55;;;;;;;19.95;100.00;101634.66;4978806;28;20467;-64
2021/09/11 09:19:25;;;;;;;29.25;16.65;;;;;;;19.76;100.00;101638.75;4975409;28;20137;-63
2021/09/11 09:21:53;;;;;;;26.55;17.85;;;;;;;19.74;100.00;101638.94;4982302;28;20129;-63
2021/09/11 09:24:32;;;;;;;27.70;17.55;;;;;;;19.61;100.00;101636.09;4975210;28;20128;-63
2021/09/11 09:27:02;;;;;;;25.15;17.65;;;;;;;20.07;100.00;101635.81;4980837;28;20050;-63
2021/09/11 09:29:30;;;;;;;24.38;17.02;;;;;;;20.26;100.00;101636.19;4974525;28;20141;-64
2021/09/11 09:31:59;;;;;;;22.48;16.27;;;;;;;20.62;99.86;101640.63;4981872;28;20137;-64
2021/09/11 09:34:38;;;;;;;23.25;15.95;;;;;;;20.60;100.00;101638.19;4972584;28;20054;-63
2021/09/11 09:37:06;;;;;;;23.88;17.25;;;;;;;20.22;99.57;101640.25;4978941;28;20092;-63
2021/09/11 09:39:44;;;;;;;27.38;17.73;;;;;;;19.75;100.00;101645.09;4971883;28;20559;-63
2021/09/11 09:42:12;;;;;;;25.15;18.50;;;;;;;19.73;100.00;101647.13;4974320;28;20146;-64
2021/09/11 09:44:44;;;;;;;30.08;19.05;;;;;;;19.76;100.00;101649.41;4978130;28;20600;-63
2021/09/11 09:47:12;;;;;;;26.60;18.35;;;;;;;19.84;100.00;101649.28;4973891;28;20058;-64
2021/09/11 09:49:38;;;;;;;;;;;;;;;20.17;100.00;101650.66;4978588;28;20459;-64
2021/09/11 09:52:06;;;;;;;28.65;19.83;;;;;;;19.97;100.00;101647.78;4976675;28;20335;-64
2021/09/11 09:54:32;;;;;;;27.88;19.38;;;;;;;19.84;100.00;101648.47;4975149;28;20046;-64
2021/09/11 09:56:59;;;;;;;35.33;21.48;;;;;;;19.83;100.00;101646.81;4971181;28;20100;-63
2021/09/11 09:59:26;;;;;;;30.27;20.55;;;;;;;20.00;100.00;101642.91;4974606;28;20134;-63
2021/09/11 10:01:52;;;;;;;31.50;20.50;;;;;;;19.58;100.00;101640.97;4977874;28;20145;-64
2021/09/11 10:04:21;;;;;;;30.70;19.92;;;;;;;19.59;100.00;101642.63;4976143;28;20062;-63
2021/09/11 10:06:49;;;;;;;;;;;;;;;19.91;100.00;101644.03;4980696;28;20058;-62
2021/09/11 10:09:21;;;;;;;32.35;21.55;;;;;;;20.21;100.00;101634.13;4975224;28;19972;-63
2021/09/11 10:11:51;;;;;;;32.60;20.13;;;;;;;20.15;100.00;101641.03;4974241;28;20133;-63
2021/09/11 10:14:19;;;;;;;31.98;19.95;;;;;;;20.26;100.00;101641.53;4974725;28;20065;-63
2021/09/11 10:17:05;;;;;;;32.17;21.90;;;;;;;20.21;100.00;101642.09;4976540;28;20850;-63
2021/09/11 10:19:36;;;;;;;34.58;22.42;;;;;;;20.10;100.00;101651.41;4972913;28;20078;-63
2021/09/11 10:22:16;;;;;;;35.53;22.00;;;;;;;19.86;100.00;101646.44;4978274;28;20064;-63
2021/09/11 10:24:47;;;;;;;30.13;21.45;;;;;;;19.84;100.00;101651.97;4971992;28;20054;-63
2021/09/11 10:27:23;;;;;;;34.53;21.38;;;;;;;20.00;100.00;101642.09;4978839;28;20156;-63
2021/09/11 10:29:52;;;;;;;34.20;23.63;;;;;;;20.14;100.00;101649.19;4976819;28;20142;-63
2021/09/11 10:32:24;;;;;;;34.28;21.55;;;;;;;20.40;100.00;101637.13;4973007;28;20290;-63
2021/09/11 10:35:06;;;;;;;37.42;22.23;;;;;;;20.08;100.00;101639.31;4972906;28;20144;-63
2021/09/11 10:37:38;;;;;;;32.45;22.25;;;;;;;20.41;100.00;101638.81;4971708;28;20105;-63
2021/09/11 10:40:14;;;;;;;36.50;23.95;;;;;;;20.50;99.34;101630.47;4976779;28;20054;-63
2021/09/11 10:43:09;;;;;;;29.67;22.52;;;;;;;20.53;99.52;101632.75;4974660;28;20058;-63
2021/09/11 10:45:44;;;;;;;33.63;22.42;;;;;;;20.38;100.00;101626.66;4972688;28;20534;-63
2021/09/11 10:48:32;;;;;;;37.13;23.02;;;;;;;20.01;100.00;101633.06;4972475;28;20748;-64
2021/09/11 10:51:24;;;;;;;28.80;18.98;;;;;;;20.23;100.00;101628.56;4973397;28;20125;-63
2021/09/11 10:54:03;;;;;;;35.08;23.77;;;;;;;20.13;100.00;101631.56;4970468;28;20051;-63
2021/09/11 10:56:33;;;;;;;36.95;22.70;;;;;;;20.30;100.00;101634.81;4975760;28;20058;-63
2021/09/11 10:59:22;;;;;;;35.92;24.67;;;;;;;20.34;100.00;101625.41;4974469;28;20142;-63
2021/09/11 11:02:01;;;;;;;31.13;22.27;;;;;;;20.38;100.00;101631.19;4974709;28;20085;-63
2021/09/11 11:04:40;;;;;;;33.78;23.27;;;;;;;20.33;100.00;101621.94;4974798;28;20050;-63
2021/09/11 11:07:09;;;;;;;35.15;22.63;;;;;;;20.65;100.00;101627.75;4971786;28;20488;-63